sensor_id;sensor_type;location;lat;lon;timestamp;temperature;humidity
11511;DHT22;5812;48.864;9.190;2022-10-22T00:01:57;13.00;99.90
11511;DHT22;5812;48.864;9.190;2022-10-22T00:04:23;13.10;99.90
11511;DHT22;5812;48.864;9.190;2022-10-22T00:06:48;13.10;99.90
11511;DHT22;5812;48.864;9.190;2022-10-22T00:09:14;13.10;99.90
11511;DHT22;5812;48.864;9.190;2022-10-22T00:11:41;13.10;99.90
11511;DHT22;5812;48.864;9.190;2022-10-22T00:14:07;13.00;99.90
11511;DHT22;5812;48.864;9.190;2022-10-22T00:16:33;12.90;99.90
11511;DHT22;5812;48.864;9.190;2022-10-22T00:18:59;12.80;99.90
11511;DHT22;5812;48.864;9.190;2022-10-22T00:21:24;12.80;99.90
11511;DHT22;5812;48.864;9.190;2022-10-22T00:23:53;12.90;99.90
11511;DHT22;5812;48.864;9.190;2022-10-22T00:26:19;12.90;99.90
11511;DHT22;5812;48.864;9.190;2022-10-22T00:28:45;13.00;99.90
11511;DHT22;5812;48.864;9.190;2022-10-22T00:31:10;13.00;99.90
11511;DHT22;5812;48.864;9.190;2022-10-22T00:33:36;13.00;99.90
11511;DHT22;5812;48.864;9.190;2022-10-22T00:36:02;13.10;99.90
11511;DHT22;5812;48.864;9.190;2022-10-22T00:38:27;12.90;99.90
11511;DHT22;5812;48.864;9.190;2022-10-22T00:40:53;12.90;99.90
11511;DHT22;5812;48.864;9.190;2022-10-22T00:43:19;12.90;99.90
11511;DHT22;5812;48.864;9.190;2022-10-22T00:45:45;12.80;99.90
11511;DHT22;5812;48.864;9.190;2022-10-22T00:48:11;12.80;99.90
11511;DHT22;5812;48.864;9.190;2022-10-22T00:50:51;13.00;99.90
11511;DHT22;5812;48.864;9.190;2022-10-22T00:53:42;12.80;99.90
11511;DHT22;5812;48.864;9.190;2022-10-22T00:56:09;12.90;99.90
11511;DHT22;5812;48.864;9.190;2022-10-22T00:58:38;12.80;99.90
11511;DHT22;5812;48.864;9.190;2022-10-22T01:01:05;12.80;99.90
11511;DHT22;5812;48.864;9.190;2022-10-22T01:03:33;13.00;99.90
11511;DHT22;5812;48.864;9.190;2022-10-22T01:06:01;13.00;99.90
11511;DHT22;5812;48.864;9.190;2022-10-22T01:08:38;12.90;99.90
11511;DHT22;5812;48.864;9.190;2022-10-22T01:11:23;13.00;99.90
11511;DHT22;5812;48.864;9.190;2022-10-22T01:16:41;12.90;99.90
11511;DHT22;5812;48.864;9.190;2022-10-22T01:21:42;12.90;99.90
11511;DHT22;5812;48.864;9.190;2022-10-22T01:29:46;13.00;99.90
11511;DHT22;5812;48.864;9.190;2022-10-22T01:32:18;13.00;99.90
11511;DHT22;5812;48.864;9.190;2022-10-22T01:34:49;12.90;99.90
11511;DHT22;5812;48.864;9.190;2022-10-22T01:37:17;12.90;99.90
11511;DHT22;5812;48.864;9.190;2022-10-22T01:39:45;12.80;99.90
11511;DHT22;5812;48.864;9.190;2022-10-22T01:42:13;12.90;99.90
11511;DHT22;5812;48.864;9.190;2022-10-22T01:44:39;12.90;99.90
11511;DHT22;5812;48.864;9.190;2022-10-22T01:50:23;12.90;99.90
11511;DHT22;5812;48.864;9.190;2022-10-22T02:01:59;13.10;99.90
11511;DHT22;5812;48.864;9.190;2022-10-22T02:04:40;13.00;99.90
11511;DHT22;5812;48.864;9.190;2022-10-22T02:07:11;12.90;99.90
11511;DHT22;5812;48.864;9.190;2022-10-22T02:09:39;12.90;99.90
11511;DHT22;5812;48.864;9.190;2022-10-22T02:12:07;12.80;99.90
11511;DHT22;5812;48.864;9.190;2022-10-22T02:14:36;12.70;99.90
11511;DHT22;5812;48.864;9.190;2022-10-22T02:17:03;12.70;99.90
11511;DHT22;5812;48.864;9.190;2022-10-22T02:19:43;12.60;99.90
11511;DHT22;5812;48.864;9.190;2022-10-22T02:22:10;12.60;99.90
11511;DHT22;5812;48.864;9.190;2022-10-22T02:24:36;12.60;99.90
11511;DHT22;5812;48.864;9.190;2022-10-22T02:27:15;12.60;99.90
11511;DHT22;5812;48.864;9.190;2022-10-22T02:29:54;12.60;99.90
11511;DHT22;5812;48.864;9.190;2022-10-22T02:32:25;12.60;99.90
11511;DHT22;5812;48.864;9.190;2022-10-22T02:34:54;12.60;99.90
11511;DHT22;5812;48.864;9.190;2022-10-22T02:37:21;12.60;99.90
11511;DHT22;5812;48.864;9.190;2022-10-22T02:39:49;12.50;99.90
11511;DHT22;5812;48.864;9.190;2022-10-22T02:42:15;12.50;99.90
11511;DHT22;5812;48.864;9.190;2022-10-22T02:44:40;12.50;99.90
11511;DHT22;5812;48.864;9.190;2022-10-22T02:47:06;12.50;99.90
11511;DHT22;5812;48.864;9.190;2022-10-22T02:49:32;12.40;99.90
11511;DHT22;5812;48.864;9.190;2022-10-22T02:51:57;12.40;99.90
11511;DHT22;5812;48.864;9.190;2022-10-22T02:54:24;12.40;99.90
11511;DHT22;5812;48.864;9.190;2022-10-22T02:56:49;12.30;99.90
11511;DHT22;5812;48.864;9.190;2022-10-22T02:59:15;12.70;99.90
11511;DHT22;5812;48.864;9.190;2022-10-22T03:01:40;12.40;99.90
11511;DHT22;5812;48.864;9.190;2022-10-22T03:04:06;12.50;99.90
11511;DHT22;5812;48.864;9.190;2022-10-22T03:06:31;12.50;99.90
11511;DHT22;5812;48.864;9.190;2022-10-22T03:08:57;12.50;99.90
11511;DHT22;5812;48.864;9.190;2022-10-22T03:11:23;12.40;99.90
11511;DHT22;5812;48.864;9.190;2022-10-22T03:13:48;12.40;99.90
11511;DHT22;5812;48.864;9.190;2022-10-22T03:16:14;12.40;99.90
11511;DHT22;5812;48.864;9.190;2022-10-22T03:18:39;12.40;99.90
11511;DHT22;5812;48.864;9.190;2022-10-22T03:21:24;12.40;99.90
11511;DHT22;5812;48.864;9.190;2022-10-22T03:23:50;12.40;99.90
11511;DHT22;5812;48.864;9.190;2022-10-22T03:26:16;12.40;99.90
11511;DHT22;5812;48.864;9.190;2022-10-22T03:28:42;12.40;99.90
11511;DHT22;5812;48.864;9.190;2022-10-22T03:31:08;12.30;99.90
11511;DHT22;5812;48.864;9.190;2022-10-22T03:33:34;12.30;99.90
11511;DHT22;5812;48.864;9.190;2022-10-22T03:36:00;12.30;99.90
11511;DHT22;5812;48.864;9.190;2022-10-22T03:38:25;12.40;99.90
11511;DHT22;5812;48.864;9.190;2022-10-22T03:40:51;12.40;99.90
11511;DHT22;5812;48.864;9.190;2022-10-22T03:43:17;12.50;99.90
11511;DHT22;5812;48.864;9.190;2022-10-22T03:45:43;12.50;99.90
11511;DHT22;5812;48.864;9.190;2022-10-22T03:48:08;12.50;99.90
11511;DHT22;5812;48.864;9.190;2022-10-22T03:50:34;12.40;99.90
11511;DHT22;5812;48.864;9.190;2022-10-22T03:52:59;12.50;99.90
11511;DHT22;5812;48.864;9.190;2022-10-22T03:55:25;12.50;99.90
11511;DHT22;5812;48.864;9.190;2022-10-22T03:57:51;12.50;99.90
11511;DHT22;5812;48.864;9.190;2022-10-22T04:00:16;12.50;99.90
11511;DHT22;5812;48.864;9.190;2022-10-22T04:02:42;12.70;99.90
11511;DHT22;5812;48.864;9.190;2022-10-22T04:05:08;12.70;99.90
11511;DHT22;5812;48.864;9.190;2022-10-22T04:07:33;12.70;99.90
11511;DHT22;5812;48.864;9.190;2022-10-22T04:09:59;12.80;99.90
11511;DHT22;5812;48.864;9.190;2022-10-22T04:12:24;12.80;99.90
11511;DHT22;5812;48.864;9.190;2022-10-22T04:14:50;12.70;99.90
11511;DHT22;5812;48.864;9.190;2022-10-22T04:17:16;12.60;99.90
11511;DHT22;5812;48.864;9.190;2022-10-22T04:19:41;12.50;99.90
11511;DHT22;5812;48.864;9.190;2022-10-22T04:22:07;12.40;99.90
11511;DHT22;5812;48.864;9.190;2022-10-22T04:24:32;12.50;99.90
11511;DHT22;5812;48.864;9.190;2022-10-22T04:26:58;12.60;99.90
11511;DHT22;5812;48.864;9.190;2022-10-22T04:29:24;12.70;99.90
11511;DHT22;5812;48.864;9.190;2022-10-22T04:31:49;12.70;99.90
11511;DHT22;5812;48.864;9.190;2022-10-22T04:34:15;12.50;99.90
11511;DHT22;5812;48.864;9.190;2022-10-22T04:36:41;12.30;99.90
11511;DHT22;5812;48.864;9.190;2022-10-22T04:39:06;12.30;99.90
11511;DHT22;5812;48.864;9.190;2022-10-22T04:41:34;12.20;99.90
11511;DHT22;5812;48.864;9.190;2022-10-22T04:44:01;12.10;99.90
11511;DHT22;5812;48.864;9.190;2022-10-22T04:46:29;12.00;99.90
11511;DHT22;5812;48.864;9.190;2022-10-22T04:48:55;12.00;99.90
11511;DHT22;5812;48.864;9.190;2022-10-22T04:51:23;12.00;99.90
11511;DHT22;5812;48.864;9.190;2022-10-22T04:53:49;11.90;99.90
11511;DHT22;5812;48.864;9.190;2022-10-22T04:56:26;11.90;99.90
11511;DHT22;5812;48.864;9.190;2022-10-22T04:59:01;12.00;99.90
11511;DHT22;5812;48.864;9.190;2022-10-22T05:01:35;12.10;99.90
11511;DHT22;5812;48.864;9.190;2022-10-22T05:04:02;12.10;99.90
11511;DHT22;5812;48.864;9.190;2022-10-22T05:06:29;12.10;99.90
11511;DHT22;5812;48.864;9.190;2022-10-22T05:08:57;12.10;99.90
11511;DHT22;5812;48.864;9.190;2022-10-22T05:11:29;12.00;99.90
11511;DHT22;5812;48.864;9.190;2022-10-22T05:13:57;12.00;99.90
11511;DHT22;5812;48.864;9.190;2022-10-22T05:16:23;12.00;99.90
11511;DHT22;5812;48.864;9.190;2022-10-22T05:18:48;12.00;99.90
11511;DHT22;5812;48.864;9.190;2022-10-22T05:21:17;12.00;99.90
11511;DHT22;5812;48.864;9.190;2022-10-22T05:23:44;12.10;99.90
11511;DHT22;5812;48.864;9.190;2022-10-22T05:26:12;12.20;99.90
11511;DHT22;5812;48.864;9.190;2022-10-22T05:28:38;12.30;99.90
11511;DHT22;5812;48.864;9.190;2022-10-22T05:31:04;12.30;99.90
11511;DHT22;5812;48.864;9.190;2022-10-22T05:33:31;12.40;99.90
11511;DHT22;5812;48.864;9.190;2022-10-22T05:35:57;12.50;99.90
11511;DHT22;5812;48.864;9.190;2022-10-22T05:38:23;12.50;99.90
11511;DHT22;5812;48.864;9.190;2022-10-22T05:40:59;12.50;99.90
11511;DHT22;5812;48.864;9.190;2022-10-22T05:43:25;12.50;99.90
11511;DHT22;5812;48.864;9.190;2022-10-22T05:45:50;12.50;99.90
11511;DHT22;5812;48.864;9.190;2022-10-22T05:48:16;12.50;99.90
11511;DHT22;5812;48.864;9.190;2022-10-22T05:50:41;12.50;99.90
11511;DHT22;5812;48.864;9.190;2022-10-22T05:53:09;12.50;99.90
11511;DHT22;5812;48.864;9.190;2022-10-22T05:55:35;12.50;99.90
11511;DHT22;5812;48.864;9.190;2022-10-22T05:58:03;12.50;99.90
11511;DHT22;5812;48.864;9.190;2022-10-22T06:00:29;12.50;99.90
11511;DHT22;5812;48.864;9.190;2022-10-22T06:02:54;12.60;99.90
11511;DHT22;5812;48.864;9.190;2022-10-22T06:05:20;12.70;99.90
11511;DHT22;5812;48.864;9.190;2022-10-22T06:07:46;12.50;99.90
11511;DHT22;5812;48.864;9.190;2022-10-22T06:10:17;12.40;99.90
11511;DHT22;5812;48.864;9.190;2022-10-22T06:12:44;12.30;99.90
11511;DHT22;5812;48.864;9.190;2022-10-22T06:15:11;12.30;99.90
11511;DHT22;5812;48.864;9.190;2022-10-22T06:17:37;12.30;99.90
11511;DHT22;5812;48.864;9.190;2022-10-22T06:20:03;12.30;99.90
11511;DHT22;5812;48.864;9.190;2022-10-22T06:22:28;12.30;99.90
11511;DHT22;5812;48.864;9.190;2022-10-22T06:24:54;12.30;99.90
11511;DHT22;5812;48.864;9.190;2022-10-22T06:27:19;12.20;99.90
11511;DHT22;5812;48.864;9.190;2022-10-22T06:29:46;12.30;99.90
11511;DHT22;5812;48.864;9.190;2022-10-22T06:32:12;12.30;99.90
11511;DHT22;5812;48.864;9.190;2022-10-22T06:34:37;12.30;99.90
11511;DHT22;5812;48.864;9.190;2022-10-22T06:37:03;12.30;99.90
11511;DHT22;5812;48.864;9.190;2022-10-22T06:39:28;12.40;99.90
11511;DHT22;5812;48.864;9.190;2022-10-22T06:41:54;12.30;99.90
11511;DHT22;5812;48.864;9.190;2022-10-22T06:44:20;12.30;99.90
11511;DHT22;5812;48.864;9.190;2022-10-22T06:46:51;12.30;99.90
11511;DHT22;5812;48.864;9.190;2022-10-22T06:49:17;12.40;99.90
11511;DHT22;5812;48.864;9.190;2022-10-22T06:51:44;12.40;99.90
11511;DHT22;5812;48.864;9.190;2022-10-22T06:54:10;12.40;99.90
11511;DHT22;5812;48.864;9.190;2022-10-22T06:56:36;12.40;99.90
11511;DHT22;5812;48.864;9.190;2022-10-22T06:59:02;12.30;99.90
11511;DHT22;5812;48.864;9.190;2022-10-22T07:01:30;12.40;99.90
11511;DHT22;5812;48.864;9.190;2022-10-22T07:03:56;12.40;99.90
11511;DHT22;5812;48.864;9.190;2022-10-22T07:06:23;12.50;99.90
11511;DHT22;5812;48.864;9.190;2022-10-22T07:08:49;12.50;99.90
11511;DHT22;5812;48.864;9.190;2022-10-22T07:11:18;12.50;99.90
11511;DHT22;5812;48.864;9.190;2022-10-22T07:13:44;12.60;99.90
11511;DHT22;5812;48.864;9.190;2022-10-22T07:16:11;12.60;99.90
11511;DHT22;5812;48.864;9.190;2022-10-22T07:18:37;12.70;99.90
11511;DHT22;5812;48.864;9.190;2022-10-22T07:21:04;12.90;99.90
11511;DHT22;5812;48.864;9.190;2022-10-22T07:23:30;12.80;99.90
11511;DHT22;5812;48.864;9.190;2022-10-22T07:25:56;12.90;99.90
11511;DHT22;5812;48.864;9.190;2022-10-22T07:28:22;13.00;99.90
11511;DHT22;5812;48.864;9.190;2022-10-22T07:30:48;13.20;99.90
11511;DHT22;5812;48.864;9.190;2022-10-22T07:33:17;13.90;99.90
11511;DHT22;5812;48.864;9.190;2022-10-22T07:35:42;13.40;99.90
11511;DHT22;5812;48.864;9.190;2022-10-22T07:38:08;13.50;99.90
11511;DHT22;5812;48.864;9.190;2022-10-22T07:40:34;13.60;99.90
11511;DHT22;5812;48.864;9.190;2022-10-22T07:43:00;13.60;99.90
11511;DHT22;5812;48.864;9.190;2022-10-22T07:45:26;13.60;99.90
11511;DHT22;5812;48.864;9.190;2022-10-22T07:47:51;13.70;99.90
11511;DHT22;5812;48.864;9.190;2022-10-22T07:50:17;13.70;99.90
11511;DHT22;5812;48.864;9.190;2022-10-22T07:52:43;13.90;99.90
11511;DHT22;5812;48.864;9.190;2022-10-22T07:55:09;14.00;99.90
11511;DHT22;5812;48.864;9.190;2022-10-22T07:57:35;13.90;99.90
11511;DHT22;5812;48.864;9.190;2022-10-22T08:00:05;14.00;99.90
11511;DHT22;5812;48.864;9.190;2022-10-22T08:02:31;14.10;99.90
11511;DHT22;5812;48.864;9.190;2022-10-22T08:04:57;15.10;99.90
11511;DHT22;5812;48.864;9.190;2022-10-22T08:07:23;14.30;99.90
11511;DHT22;5812;48.864;9.190;2022-10-22T08:09:49;15.20;99.90
11511;DHT22;5812;48.864;9.190;2022-10-22T08:12:15;14.60;99.90
11511;DHT22;5812;48.864;9.190;2022-10-22T08:14:40;16.30;99.90
11511;DHT22;5812;48.864;9.190;2022-10-22T08:17:06;15.50;99.90
11511;DHT22;5812;48.864;9.190;2022-10-22T08:19:31;15.50;99.90
11511;DHT22;5812;48.864;9.190;2022-10-22T08:21:58;15.50;99.90
11511;DHT22;5812;48.864;9.190;2022-10-22T08:24:24;15.70;99.90
11511;DHT22;5812;48.864;9.190;2022-10-22T08:26:51;15.90;99.90
11511;DHT22;5812;48.864;9.190;2022-10-22T08:29:19;16.40;99.90
11511;DHT22;5812;48.864;9.190;2022-10-22T08:31:47;16.20;99.90
11511;DHT22;5812;48.864;9.190;2022-10-22T08:34:13;16.40;99.90
11511;DHT22;5812;48.864;9.190;2022-10-22T08:36:39;16.70;99.90
11511;DHT22;5812;48.864;9.190;2022-10-22T08:39:04;17.40;99.90
11511;DHT22;5812;48.864;9.190;2022-10-22T08:41:32;16.60;99.90
11511;DHT22;5812;48.864;9.190;2022-10-22T08:44:23;16.70;99.90
11511;DHT22;5812;48.864;9.190;2022-10-22T08:49:25;17.10;99.90
11511;DHT22;5812;48.864;9.190;2022-10-22T08:51:51;17.60;99.90
11511;DHT22;5812;48.864;9.190;2022-10-22T08:54:53;17.20;99.90
11511;DHT22;5812;48.864;9.190;2022-10-22T08:57:25;17.20;99.90
11511;DHT22;5812;48.864;9.190;2022-10-22T09:02:51;17.70;99.90
11511;DHT22;5812;48.864;9.190;2022-10-22T09:07:54;17.90;99.90
11511;DHT22;5812;48.864;9.190;2022-10-22T09:10:26;17.70;99.90
11511;DHT22;5812;48.864;9.190;2022-10-22T09:12:53;18.10;99.90
11511;DHT22;5812;48.864;9.190;2022-10-22T09:15:19;18.30;55.20
11511;DHT22;5812;48.864;9.190;2022-10-22T09:20:44;18.00;99.90
11511;DHT22;5812;48.864;9.190;2022-10-22T09:23:23;18.50;99.90
11511;DHT22;5812;48.864;9.190;2022-10-22T09:25:51;18.80;99.90
11511;DHT22;5812;48.864;9.190;2022-10-22T09:28:17;19.20;99.90
11511;DHT22;5812;48.864;9.190;2022-10-22T09:30:43;19.10;99.90
11511;DHT22;5812;48.864;9.190;2022-10-22T09:35:58;20.00;99.90
11511;DHT22;5812;48.864;9.190;2022-10-22T09:38:31;19.80;80.10
11511;DHT22;5812;48.864;9.190;2022-10-22T09:40:58;19.50;99.90
11511;DHT22;5812;48.864;9.190;2022-10-22T09:43:24;19.80;57.80
11511;DHT22;5812;48.864;9.190;2022-10-22T09:45:59;20.10;99.90
11511;DHT22;5812;48.864;9.190;2022-10-22T09:48:33;20.00;31.90
11511;DHT22;5812;48.864;9.190;2022-10-22T09:54:01;20.20;91.80
11511;DHT22;5812;48.864;9.190;2022-10-22T09:56:39;20.40;1.00
11511;DHT22;5812;48.864;9.190;2022-10-22T09:59:15;20.50;99.70
11511;DHT22;5812;48.864;9.190;2022-10-22T10:01:41;20.20;99.90
11511;DHT22;5812;48.864;9.190;2022-10-22T10:04:12;20.40;1.00
11511;DHT22;5812;48.864;9.190;2022-10-22T10:06:41;20.20;1.00
11511;DHT22;5812;48.864;9.190;2022-10-22T10:09:33;20.50;1.00
11511;DHT22;5812;48.864;9.190;2022-10-22T10:12:28;20.60;99.90
11511;DHT22;5812;48.864;9.190;2022-10-22T10:20:40;20.30;68.20
11511;DHT22;5812;48.864;9.190;2022-10-22T10:36:33;21.00;99.90
11511;DHT22;5812;48.864;9.190;2022-10-22T10:39:12;20.90;99.90
11511;DHT22;5812;48.864;9.190;2022-10-22T10:41:48;21.40;99.90
11511;DHT22;5812;48.864;9.190;2022-10-22T10:44:47;21.20;99.90
11511;DHT22;5812;48.864;9.190;2022-10-22T10:50:11;21.60;99.90
11511;DHT22;5812;48.864;9.190;2022-10-22T10:55:42;22.10;99.90
11511;DHT22;5812;48.864;9.190;2022-10-22T11:06:41;22.00;99.90
11511;DHT22;5812;48.864;9.190;2022-10-22T11:09:34;22.70;91.30
11511;DHT22;5812;48.864;9.190;2022-10-22T11:12:07;22.70;74.00
11511;DHT22;5812;48.864;9.190;2022-10-22T11:14:46;23.10;99.90
11511;DHT22;5812;48.864;9.190;2022-10-22T11:17:16;23.10;99.90
11511;DHT22;5812;48.864;9.190;2022-10-22T11:20:17;23.50;99.90
11511;DHT22;5812;48.864;9.190;2022-10-22T11:25:18;23.10;99.90
11511;DHT22;5812;48.864;9.190;2022-10-22T11:30:21;24.00;99.90
11511;DHT22;5812;48.864;9.190;2022-10-22T11:32:55;22.90;99.90
11511;DHT22;5812;48.864;9.190;2022-10-22T11:35:26;20.70;99.90
11511;DHT22;5812;48.864;9.190;2022-10-22T11:37:54;23.50;99.90
11511;DHT22;5812;48.864;9.190;2022-10-22T11:40:46;25.60;99.90
11511;DHT22;5812;48.864;9.190;2022-10-22T11:43:50;26.40;99.90
11511;DHT22;5812;48.864;9.190;2022-10-22T11:48:42;27.80;99.90
11511;DHT22;5812;48.864;9.190;2022-10-22T11:51:46;27.40;99.90
11511;DHT22;5812;48.864;9.190;2022-10-22T11:54:37;28.00;99.90
11511;DHT22;5812;48.864;9.190;2022-10-22T12:02:45;28.10;99.90
11511;DHT22;5812;48.864;9.190;2022-10-22T12:13:21;23.20;29.40
11511;DHT22;5812;48.864;9.190;2022-10-22T12:15:51;22.90;35.00
11511;DHT22;5812;48.864;9.190;2022-10-22T12:18:17;21.90;38.70
11511;DHT22;5812;48.864;9.190;2022-10-22T12:20:43;23.00;24.20
11511;DHT22;5812;48.864;9.190;2022-10-22T12:23:14;25.00;2.10
11511;DHT22;5812;48.864;9.190;2022-10-22T12:25:40;23.00;15.80
11511;DHT22;5812;48.864;9.190;2022-10-22T12:28:10;21.60;95.50
11511;DHT22;5812;48.864;9.190;2022-10-22T12:30:36;24.00;9.60
11511;DHT22;5812;48.864;9.190;2022-10-22T12:33:05;23.40;16.50
11511;DHT22;5812;48.864;9.190;2022-10-22T12:35:42;23.50;14.60
11511;DHT22;5812;48.864;9.190;2022-10-22T12:38:14;25.50;1.00
11511;DHT22;5812;48.864;9.190;2022-10-22T12:40:40;26.00;1.00
11511;DHT22;5812;48.864;9.190;2022-10-22T12:43:10;26.70;99.90
11511;DHT22;5812;48.864;9.190;2022-10-22T12:45:37;27.10;99.90
11511;DHT22;5812;48.864;9.190;2022-10-22T12:48:18;27.10;99.90
11511;DHT22;5812;48.864;9.190;2022-10-22T12:50:48;27.20;99.90
11511;DHT22;5812;48.864;9.190;2022-10-22T12:53:18;28.00;99.90
11511;DHT22;5812;48.864;9.190;2022-10-22T12:55:47;28.70;99.90
11511;DHT22;5812;48.864;9.190;2022-10-22T12:58:25;28.20;99.90
11511;DHT22;5812;48.864;9.190;2022-10-22T13:00:56;26.30;1.00
11511;DHT22;5812;48.864;9.190;2022-10-22T13:03:31;23.80;1.00
11511;DHT22;5812;48.864;9.190;2022-10-22T13:08:42;22.00;8.20
11511;DHT22;5812;48.864;9.190;2022-10-22T13:11:10;21.20;51.50
11511;DHT22;5812;48.864;9.190;2022-10-22T13:16:23;20.40;91.50
11511;DHT22;5812;48.864;9.190;2022-10-22T13:18:51;20.40;61.30
11511;DHT22;5812;48.864;9.190;2022-10-22T13:21:41;21.80;26.80
11511;DHT22;5812;48.864;9.190;2022-10-22T13:24:23;23.20;1.00
11511;DHT22;5812;48.864;9.190;2022-10-22T13:26:51;22.80;1.00
11511;DHT22;5812;48.864;9.190;2022-10-22T13:29:19;22.60;1.00
11511;DHT22;5812;48.864;9.190;2022-10-22T13:31:51;22.20;25.00
11511;DHT22;5812;48.864;9.190;2022-10-22T13:34:23;22.00;1.00
11511;DHT22;5812;48.864;9.190;2022-10-22T13:36:49;22.00;16.30
11511;DHT22;5812;48.864;9.190;2022-10-22T13:39:20;21.50;42.20
11511;DHT22;5812;48.864;9.190;2022-10-22T13:41:46;20.50;99.90
11511;DHT22;5812;48.864;9.190;2022-10-22T13:44:15;20.10;99.90
11511;DHT22;5812;48.864;9.190;2022-10-22T13:46:41;19.70;99.90
11511;DHT22;5812;48.864;9.190;2022-10-22T13:49:18;19.50;99.90
11511;DHT22;5812;48.864;9.190;2022-10-22T13:51:45;19.40;99.90
11511;DHT22;5812;48.864;9.190;2022-10-22T13:54:17;19.40;99.90
11511;DHT22;5812;48.864;9.190;2022-10-22T13:56:44;19.40;99.90
11511;DHT22;5812;48.864;9.190;2022-10-22T13:59:10;19.70;99.90
11511;DHT22;5812;48.864;9.190;2022-10-22T14:01:36;19.50;99.90
11511;DHT22;5812;48.864;9.190;2022-10-22T14:04:03;19.40;99.90
11511;DHT22;5812;48.864;9.190;2022-10-22T14:06:31;19.20;99.90
11511;DHT22;5812;48.864;9.190;2022-10-22T14:09:04;19.00;99.90
11511;DHT22;5812;48.864;9.190;2022-10-22T14:11:29;19.00;99.90
11511;DHT22;5812;48.864;9.190;2022-10-22T14:13:57;18.90;99.90
11511;DHT22;5812;48.864;9.190;2022-10-22T14:16:24;18.90;99.90
11511;DHT22;5812;48.864;9.190;2022-10-22T14:18:51;18.80;99.90
11511;DHT22;5812;48.864;9.190;2022-10-22T14:21:17;18.70;99.90
11511;DHT22;5812;48.864;9.190;2022-10-22T14:23:45;18.70;99.90
11511;DHT22;5812;48.864;9.190;2022-10-22T14:26:26;18.60;99.90
11511;DHT22;5812;48.864;9.190;2022-10-22T14:28:54;18.90;99.90
11511;DHT22;5812;48.864;9.190;2022-10-22T14:31:20;18.90;99.90
11511;DHT22;5812;48.864;9.190;2022-10-22T14:33:46;18.90;99.90
11511;DHT22;5812;48.864;9.190;2022-10-22T14:36:13;18.60;99.90
11511;DHT22;5812;48.864;9.190;2022-10-22T14:38:40;18.80;99.90
11511;DHT22;5812;48.864;9.190;2022-10-22T14:41:18;18.90;99.90
11511;DHT22;5812;48.864;9.190;2022-10-22T14:43:44;18.80;99.90
11511;DHT22;5812;48.864;9.190;2022-10-22T14:46:12;18.70;99.90
11511;DHT22;5812;48.864;9.190;2022-10-22T14:48:39;19.00;99.90
11511;DHT22;5812;48.864;9.190;2022-10-22T14:51:04;18.90;99.90
11511;DHT22;5812;48.864;9.190;2022-10-22T14:53:30;19.10;99.90
11511;DHT22;5812;48.864;9.190;2022-10-22T14:55:56;18.90;99.90
11511;DHT22;5812;48.864;9.190;2022-10-22T14:58:24;18.80;99.90
11511;DHT22;5812;48.864;9.190;2022-10-22T15:00:50;18.70;99.90
11511;DHT22;5812;48.864;9.190;2022-10-22T15:03:16;18.60;99.90
11511;DHT22;5812;48.864;9.190;2022-10-22T15:05:42;18.70;99.90
11511;DHT22;5812;48.864;9.190;2022-10-22T15:08:11;18.20;99.90
11511;DHT22;5812;48.864;9.190;2022-10-22T15:10:37;18.10;99.90
11511;DHT22;5812;48.864;9.190;2022-10-22T15:13:02;18.10;99.90
11511;DHT22;5812;48.864;9.190;2022-10-22T15:15:28;18.00;1.00
11511;DHT22;5812;48.864;9.190;2022-10-22T15:17:53;17.90;99.90
11511;DHT22;5812;48.864;9.190;2022-10-22T15:20:19;18.10;99.90
11511;DHT22;5812;48.864;9.190;2022-10-22T15:22:45;18.00;99.90
11511;DHT22;5812;48.864;9.190;2022-10-22T15:25:12;17.90;99.90
11511;DHT22;5812;48.864;9.190;2022-10-22T15:27:38;18.00;99.90
11511;DHT22;5812;48.864;9.190;2022-10-22T15:30:05;17.80;99.90
11511;DHT22;5812;48.864;9.190;2022-10-22T15:32:31;17.90;99.90
11511;DHT22;5812;48.864;9.190;2022-10-22T15:34:58;18.00;99.90
11511;DHT22;5812;48.864;9.190;2022-10-22T15:37:25;18.00;99.90
11511;DHT22;5812;48.864;9.190;2022-10-22T15:39:51;18.30;99.90
11511;DHT22;5812;48.864;9.190;2022-10-22T15:42:16;18.20;99.90
11511;DHT22;5812;48.864;9.190;2022-10-22T15:44:45;18.10;99.90
11511;DHT22;5812;48.864;9.190;2022-10-22T15:47:10;17.80;99.90
11511;DHT22;5812;48.864;9.190;2022-10-22T15:49:37;17.60;99.90
11511;DHT22;5812;48.864;9.190;2022-10-22T15:52:04;17.30;1.00
11511;DHT22;5812;48.864;9.190;2022-10-22T15:54:31;17.30;99.90
11511;DHT22;5812;48.864;9.190;2022-10-22T15:56:58;17.10;99.90
11511;DHT22;5812;48.864;9.190;2022-10-22T15:59:26;16.80;99.90
11511;DHT22;5812;48.864;9.190;2022-10-22T16:01:52;16.60;1.00
11511;DHT22;5812;48.864;9.190;2022-10-22T16:04:17;16.40;1.00
11511;DHT22;5812;48.864;9.190;2022-10-22T16:06:46;16.30;25.90
11511;DHT22;5812;48.864;9.190;2022-10-22T16:09:17;16.40;1.00
11511;DHT22;5812;48.864;9.190;2022-10-22T16:11:43;16.00;1.00
11511;DHT22;5812;48.864;9.190;2022-10-22T16:14:11;15.90;1.00
11511;DHT22;5812;48.864;9.190;2022-10-22T16:16:37;15.80;24.40
11511;DHT22;5812;48.864;9.190;2022-10-22T16:19:07;15.80;33.50
11511;DHT22;5812;48.864;9.190;2022-10-22T16:21:33;15.70;58.50
11511;DHT22;5812;48.864;9.190;2022-10-22T16:24:00;15.50;82.90
11511;DHT22;5812;48.864;9.190;2022-10-22T16:26:25;15.40;93.10
11511;DHT22;5812;48.864;9.190;2022-10-22T16:28:51;15.30;99.90
11511;DHT22;5812;48.864;9.190;2022-10-22T16:31:17;15.30;99.90
11511;DHT22;5812;48.864;9.190;2022-10-22T16:33:44;15.20;99.90
11511;DHT22;5812;48.864;9.190;2022-10-22T16:36:16;15.20;99.90
11511;DHT22;5812;48.864;9.190;2022-10-22T16:38:46;15.10;99.90
11511;DHT22;5812;48.864;9.190;2022-10-22T16:41:14;15.10;99.90
11511;DHT22;5812;48.864;9.190;2022-10-22T16:43:44;15.20;99.90
11511;DHT22;5812;48.864;9.190;2022-10-22T16:46:11;15.00;99.90
11511;DHT22;5812;48.864;9.190;2022-10-22T16:48:37;14.80;99.90
11511;DHT22;5812;48.864;9.190;2022-10-22T16:51:09;14.60;99.90
11511;DHT22;5812;48.864;9.190;2022-10-22T16:53:35;14.70;99.90
11511;DHT22;5812;48.864;9.190;2022-10-22T16:56:01;14.70;99.90
11511;DHT22;5812;48.864;9.190;2022-10-22T16:58:27;14.80;99.90
11511;DHT22;5812;48.864;9.190;2022-10-22T17:00:53;14.70;99.90
11511;DHT22;5812;48.864;9.190;2022-10-22T17:03:18;14.70;99.90
11511;DHT22;5812;48.864;9.190;2022-10-22T17:05:44;14.70;99.90
11511;DHT22;5812;48.864;9.190;2022-10-22T17:08:09;14.70;99.90
11511;DHT22;5812;48.864;9.190;2022-10-22T17:10:36;14.60;99.90
11511;DHT22;5812;48.864;9.190;2022-10-22T17:13:03;14.30;99.90
11511;DHT22;5812;48.864;9.190;2022-10-22T17:15:29;14.40;99.90
11511;DHT22;5812;48.864;9.190;2022-10-22T17:17:54;14.30;99.90
11511;DHT22;5812;48.864;9.190;2022-10-22T17:20:20;14.40;99.90
11511;DHT22;5812;48.864;9.190;2022-10-22T17:22:46;14.20;99.90
11511;DHT22;5812;48.864;9.190;2022-10-22T17:25:24;14.00;99.90
11511;DHT22;5812;48.864;9.190;2022-10-22T17:27:57;13.80;99.90
11511;DHT22;5812;48.864;9.190;2022-10-22T17:30:22;13.70;99.90
11511;DHT22;5812;48.864;9.190;2022-10-22T17:32:50;13.60;99.90
11511;DHT22;5812;48.864;9.190;2022-10-22T17:35:15;13.60;99.90
11511;DHT22;5812;48.864;9.190;2022-10-22T17:37:41;13.60;99.90